Terminal Aerodrome Forecast
Issued by NWS

Home | Current Version | Previous Version | Text Only | Print | Product List | Glossary On
Versions: 1 2 3 4 5 6 7 8 9 10 11 12 13 14 15 16 17 18 19 20 21 22
000
FTUS44 KMAF 062000 AAA
TAFFST
TAF AMD
KFST 062032Z 0621/0718 02010KT P6SM SCT070
     FM062100 15015G25KT P6SM SCT050 SCT100
     FM071400 26014KT P6SM SCT150=

USA.gov is the U.S. government's official web portal to all federal, state and local government web resources and services.